Huvudsida
METAR-TAF:

METAR-TAF

Flygplatser :

Oljeplattform

Ula, Norge

latitud: 59-06-39N, longitud: 2-50-45E, höjd: 0 m

Aktuellt väderrapport

Denna rapport gjordes för 44 minuter sedan, klockan 20:50 UTC
Vind 24 kt från väst/sydväst
Temperatur 8°C
Fuktighet 76%
Tryck 1039 hPa
Sikt 10 km eller mer

METAR: ENLA 192050Z AUTO 24024KT 9999NDV BKN120/// 08/04 Q1039 W///S4

Tid: 22:34 (21:34 UTC)


TAF: saknas

Aktuella väderrapporter och prognoser från 4000 flygplatser (METAR- och TAF-rapporter).

De tillgängliga stationerna syns som gula och röda prickar på kartan.

För musen över prickarna för att se namnen på stationerna.

Klicka sedan för att få väderrapporter och prognoser.

För att ändra kartan: Klicka på de gröna knapparna med ett svart kors på för att zooma in; den gröna knappen med ett streck på för att zooma ut; eller på de gröna pilarna för angränsande kartor.


METAR-TAF: